createdAt,value
2022-09-05T00:02:18.677Z,17.00
2022-09-05T00:04:54.551Z,16.70
2022-09-05T00:07:41.288Z,16.70
2022-09-05T00:10:27.447Z,16.70
2022-09-05T00:13:07.727Z,16.80
2022-09-05T00:15:42.490Z,17.10
2022-09-05T00:20:48.067Z,17.10
2022-09-05T00:24:31.787Z,16.90
2022-09-05T00:24:50.275Z,16.70
2022-09-05T00:27:29.375Z,16.80
2022-09-05T00:31:05.803Z,16.80
2022-09-05T00:33:24.192Z,16.70
2022-09-05T00:36:21.523Z,16.70
2022-09-05T00:38:58.276Z,16.70
2022-09-05T00:41:29.409Z,16.70
2022-09-05T00:44:02.436Z,16.70
2022-09-05T00:46:34.814Z,16.70
2022-09-05T00:49:16.196Z,16.60
2022-09-05T00:51:51.263Z,16.60
2022-09-05T00:54:41.351Z,16.70
2022-09-05T00:57:35.919Z,16.80
2022-09-05T01:00:17.611Z,16.80
2022-09-05T01:03:25.313Z,16.90
2022-09-05T01:06:09.700Z,16.90
2022-09-05T01:09:08.388Z,16.90
2022-09-05T01:11:56.361Z,16.80
2022-09-05T01:14:51.572Z,16.80
2022-09-05T01:17:31.270Z,16.80
2022-09-05T01:20:19.443Z,16.80
2022-09-05T01:23:08.785Z,16.70
2022-09-05T01:25:59.425Z,16.70
2022-09-05T01:29:15.904Z,16.80
2022-09-05T01:31:29.639Z,16.70
2022-09-05T01:34:09.026Z,16.70
2022-09-05T01:37:00.007Z,16.40
2022-09-05T01:40:14.455Z,16.20
2022-09-05T01:42:38.869Z,16.40
2022-09-05T01:45:17.562Z,16.30
2022-09-05T01:47:53.192Z,16.10
2022-09-05T01:50:37.099Z,16.00
2022-09-05T01:53:25.494Z,16.00
2022-09-05T01:56:10.211Z,16.10
2022-09-05T01:58:53.459Z,16.20
2022-09-05T02:01:32.575Z,16.20
2022-09-05T02:04:18.682Z,16.40
2022-09-05T02:06:57.637Z,16.60
2022-09-05T02:10:07.225Z,16.50
2022-09-05T02:12:44.964Z,16.40
2022-09-05T02:15:40.514Z,16.10
2022-09-05T02:18:19.214Z,16.00
2022-09-05T02:20:53.458Z,16.10
2022-09-05T02:23:42.448Z,16.00
2022-09-05T02:26:19.067Z,16.00
2022-09-05T02:28:54.010Z,16.00
2022-09-05T02:31:28.828Z,16.00
2022-09-05T02:34:05.271Z,16.10
2022-09-05T02:36:40.867Z,16.10
2022-09-05T02:45:00.100Z,16.00
2022-09-05T02:45:17.651Z,16.00
2022-09-05T02:45:27.924Z,16.10
2022-09-05T02:48:16.036Z,16.00
2022-09-05T02:54:24.070Z,16.00
2022-09-05T02:57:26.057Z,16.10
2022-09-05T02:57:46.688Z,16.20
2022-09-05T03:00:11.649Z,16.00
2022-09-05T03:03:05.287Z,16.00
2022-09-05T03:05:37.879Z,16.10
2022-09-05T03:08:29.872Z,16.00
2022-09-05T03:11:38.816Z,15.90
2022-09-05T03:14:47.870Z,15.80
2022-09-05T03:17:46.986Z,15.70
2022-09-05T03:21:09.521Z,15.60
2022-09-05T03:24:20.511Z,15.60
2022-09-05T03:27:09.827Z,15.50
2022-09-05T03:30:15.474Z,15.40
2022-09-05T03:33:17.592Z,15.50
2022-09-05T03:36:13.505Z,15.60
2022-09-05T03:39:12.692Z,15.40
2022-09-05T03:42:02.671Z,15.30
2022-09-05T03:44:44.605Z,15.30
2022-09-05T03:47:45.764Z,15.40
2022-09-05T03:53:46.901Z,15.40
2022-09-05T03:57:19.758Z,15.30
2022-09-05T03:57:26.008Z,15.60
2022-09-05T03:59:50.628Z,15.60
2022-09-05T04:08:07.092Z,15.30
2022-09-05T04:08:16.626Z,15.20
2022-09-05T04:08:34.465Z,15.30
2022-09-05T04:11:05.576Z,15.40
2022-09-05T04:13:39.638Z,15.50
2022-09-05T04:16:15.050Z,15.40
2022-09-05T04:18:45.938Z,15.40
2022-09-05T04:21:18.651Z,15.20
2022-09-05T04:23:57.950Z,15.10
2022-09-05T04:26:46.226Z,15.10
2022-09-05T04:29:20.882Z,15.20
2022-09-05T04:32:18.776Z,15.20
2022-09-05T04:35:04.325Z,15.40
2022-09-05T04:37:47.936Z,15.40
2022-09-05T04:40:36.621Z,15.30
2022-09-05T04:43:07.537Z,15.40
2022-09-05T04:45:42.457Z,15.20
2022-09-05T04:48:19.372Z,15.00
2022-09-05T04:51:12.841Z,14.80
2022-09-05T04:54:01.041Z,14.90
2022-09-05T04:56:34.011Z,15.10
2022-09-05T05:00:15.457Z,15.20
2022-09-05T05:06:03.473Z,15.20
2022-09-05T05:06:15.114Z,15.40
2022-09-05T05:07:48.776Z,15.50
2022-09-05T05:13:40.753Z,15.60
2022-09-05T05:18:04.092Z,15.60
2022-09-05T05:18:14.523Z,15.60
2022-09-05T05:19:18.747Z,15.40
2022-09-05T05:21:52.764Z,15.40
2022-09-05T05:24:25.056Z,15.60
2022-09-05T05:27:01.744Z,15.60
2022-09-05T05:29:39.869Z,15.50
2022-09-05T05:32:08.786Z,15.50
2022-09-05T05:34:46.166Z,15.50
2022-09-05T05:37:22.107Z,15.60
2022-09-05T05:39:59.053Z,15.60
2022-09-05T05:42:27.232Z,15.70
2022-09-05T05:44:57.868Z,15.70
2022-09-05T05:47:31.652Z,15.70
2022-09-05T05:50:09.358Z,15.70
2022-09-05T05:52:59.151Z,15.90
2022-09-05T05:56:03.912Z,16.00
2022-09-05T05:58:56.242Z,16.00
2022-09-05T06:01:57.586Z,16.10
2022-09-05T06:05:06.927Z,16.10
2022-09-05T06:08:30.561Z,16.10
2022-09-05T06:14:56.701Z,16.40
2022-09-05T06:15:00.009Z,16.30
2022-09-05T06:17:58.360Z,16.60
2022-09-05T06:22:11.745Z,16.80
2022-09-05T06:24:29.937Z,17.00
2022-09-05T06:27:18.947Z,17.10
2022-09-05T06:29:57.465Z,17.20
2022-09-05T06:32:43.157Z,17.40
2022-09-05T06:35:32.821Z,17.50
2022-09-05T06:38:17.784Z,17.70
2022-09-05T06:40:57.361Z,17.80
2022-09-05T06:43:52.100Z,18.00
2022-09-05T06:46:54.503Z,18.10
2022-09-05T06:49:28.937Z,18.20
2022-09-05T06:52:30.825Z,18.30
2022-09-05T06:55:37.587Z,18.40
2022-09-05T06:58:54.525Z,18.50
2022-09-05T07:01:41.550Z,18.50
2022-09-05T07:05:36.857Z,18.60
2022-09-05T07:07:27.843Z,18.70
2022-09-05T07:09:59.507Z,18.90
2022-09-05T07:12:31.226Z,19.00
2022-09-05T07:15:12.680Z,19.00
2022-09-05T07:18:09.542Z,19.10
2022-09-05T07:21:16.375Z,19.40
2022-09-05T07:24:08.958Z,19.40
2022-09-05T07:26:53.546Z,19.50
2022-09-05T07:29:27.741Z,19.60
2022-09-05T07:31:59.506Z,19.70
2022-09-05T07:34:30.405Z,19.80
2022-09-05T07:37:15.512Z,20.00
2022-09-05T07:39:49.820Z,20.10
2022-09-05T07:42:24.371Z,20.10
2022-09-05T07:44:56.693Z,20.30
2022-09-05T07:47:31.057Z,20.30
2022-09-05T07:54:06.079Z,20.30
2022-09-05T07:56:54.487Z,20.50
2022-09-05T07:57:10.214Z,20.70
2022-09-05T07:58:41.310Z,20.80
2022-09-05T08:01:12.771Z,20.80
2022-09-05T08:03:44.636Z,20.90
2022-09-05T08:07:25.635Z,20.80
2022-09-05T08:09:42.326Z,20.80
2022-09-05T08:12:11.620Z,20.90
2022-09-05T08:14:46.279Z,20.90
2022-09-05T08:17:19.031Z,21.10
2022-09-05T08:20:10.519Z,21.20
2022-09-05T08:22:52.475Z,21.30
2022-09-05T08:25:27.612Z,21.50
2022-09-05T08:28:20.389Z,21.60
2022-09-05T08:30:57.055Z,21.90
2022-09-05T08:33:29.506Z,21.90
2022-09-05T08:36:03.896Z,21.70
2022-09-05T08:38:40.591Z,21.90
2022-09-05T08:41:16.480Z,22.10
2022-09-05T08:46:40.131Z,22.20
2022-09-05T08:46:52.633Z,22.30
2022-09-05T08:49:46.353Z,22.70
2022-09-05T08:52:25.334Z,22.60
2022-09-05T08:55:06.780Z,22.60
2022-09-05T08:58:06.099Z,22.70
2022-09-05T09:00:40.843Z,23.00
2022-09-05T09:03:17.051Z,23.20
2022-09-05T09:06:15.608Z,23.20
2022-09-05T09:09:11.932Z,23.00
2022-09-05T09:11:44.140Z,23.10
2022-09-05T09:14:32.606Z,23.30
2022-09-05T09:17:09.325Z,23.40
2022-09-05T09:19:47.849Z,23.40
2022-09-05T09:22:23.426Z,23.50
2022-09-05T09:25:15.719Z,23.80
2022-09-05T09:28:49.084Z,23.70
2022-09-05T09:30:58.802Z,23.70
2022-09-05T09:33:37.257Z,23.70
2022-09-05T09:36:10.224Z,23.80
2022-09-05T09:38:53.087Z,23.80
2022-09-05T09:41:45.467Z,23.50
2022-09-05T09:44:58.203Z,23.60
2022-09-05T09:48:16.794Z,23.50
2022-09-05T09:51:10.718Z,23.40
2022-09-05T09:53:50.860Z,23.60
2022-09-05T09:56:55.516Z,23.80
2022-09-05T09:59:54.434Z,24.10
2022-09-05T10:04:51.292Z,24.30
2022-09-05T10:10:53.745Z,24.30
2022-09-05T10:10:54.221Z,24.10
2022-09-05T10:15:30.365Z,24.40
2022-09-05T10:18:34.557Z,24.40
2022-09-05T10:25:18.686Z,24.90
2022-09-05T10:28:05.984Z,24.90
2022-09-05T10:32:56.096Z,24.70
2022-09-05T10:35:14.103Z,24.80
2022-09-05T10:36:29.534Z,25.00
2022-09-05T10:39:14.087Z,24.90
2022-09-05T10:41:49.217Z,25.10
2022-09-05T10:44:28.020Z,25.40
2022-09-05T10:47:11.313Z,25.30
2022-09-05T10:49:44.701Z,25.30
2022-09-05T10:52:19.322Z,25.60
2022-09-05T10:55:13.988Z,26.10
2022-09-05T10:57:56.147Z,26.50
2022-09-05T11:02:22.309Z,26.30
2022-09-05T11:03:54.359Z,26.50
2022-09-05T11:06:31.332Z,26.70
2022-09-05T11:09:06.878Z,26.70
2022-09-05T11:11:46.274Z,26.80
2022-09-05T11:14:42.104Z,26.70
2022-09-05T11:17:25.728Z,26.90
2022-09-05T11:20:05.713Z,26.60
2022-09-05T11:22:47.535Z,26.60
2022-09-05T11:25:20.518Z,27.00
2022-09-05T11:28:15.741Z,27.10
2022-09-05T11:30:50.986Z,27.30
2022-09-05T11:39:53.546Z,27.40
2022-09-05T11:39:53.633Z,27.30
2022-09-05T11:40:29.977Z,26.90
2022-09-05T11:43:40.427Z,27.40
2022-09-05T11:46:32.216Z,27.80
2022-09-05T11:49:25.105Z,27.70
2022-09-05T11:52:41.303Z,27.50
2022-09-05T11:55:34.601Z,27.60
2022-09-05T12:01:43.337Z,27.90
2022-09-05T12:04:40.509Z,27.80
2022-09-05T12:07:37.414Z,28.20
2022-09-05T12:10:46.547Z,28.30
2022-09-05T12:13:29.153Z,28.00
2022-09-05T12:16:07.428Z,28.20
2022-09-05T12:18:44.659Z,27.80
2022-09-05T12:21:29.749Z,27.70
2022-09-05T12:24:59.289Z,27.90
2022-09-05T12:27:38.200Z,28.00
2022-09-05T12:30:00.432Z,28.40
2022-09-05T12:35:47.035Z,28.50
2022-09-05T12:36:09.888Z,28.60
2022-09-05T12:40:42.963Z,27.70
2022-09-05T12:40:48.306Z,28.60
2022-09-05T12:41:44.039Z,28.80
2022-09-05T12:44:45.968Z,29.00
2022-09-05T12:47:19.418Z,29.00
2022-09-05T12:50:03.364Z,29.10
2022-09-05T12:52:46.408Z,29.30
2022-09-05T12:55:26.682Z,29.00
2022-09-05T13:02:56.087Z,29.20
2022-09-05T13:03:02.512Z,29.60
2022-09-05T13:04:13.453Z,29.30
2022-09-05T13:06:39.416Z,29.30
2022-09-05T13:09:11.755Z,29.50
2022-09-05T13:15:03.209Z,29.20
2022-09-05T13:15:22.719Z,29.30
2022-09-05T13:17:50.613Z,29.60
2022-09-05T13:20:33.232Z,29.50
2022-09-05T13:23:13.340Z,29.90
2022-09-05T13:25:45.141Z,29.90
2022-09-05T13:28:16.320Z,29.90
2022-09-05T13:33:16.198Z,29.90
2022-09-05T13:38:04.873Z,29.80
2022-09-05T13:38:05.337Z,29.70
2022-09-05T13:39:48.889Z,29.70
2022-09-05T13:42:22.370Z,29.70
2022-09-05T13:44:55.984Z,29.90
2022-09-05T13:47:55.817Z,29.50
2022-09-05T13:50:27.432Z,29.90
2022-09-05T13:53:00.706Z,30.00
2022-09-05T13:55:42.801Z,29.30
2022-09-05T13:58:17.355Z,29.10
2022-09-05T14:01:12.736Z,29.40
2022-09-05T14:07:52.957Z,29.40
2022-09-05T14:10:36.103Z,28.90
2022-09-05T14:13:08.997Z,29.20
2022-09-05T14:15:43.661Z,29.60
2022-09-05T14:18:22.291Z,29.60
2022-09-05T14:21:13.860Z,29.60
2022-09-05T14:23:56.026Z,29.60
2022-09-05T14:26:31.520Z,29.10
2022-09-05T14:29:17.025Z,29.30
2022-09-05T14:37:44.073Z,29.00
2022-09-05T14:37:46.177Z,29.40
2022-09-05T14:38:15.496Z,28.90
2022-09-05T14:41:20.713Z,28.90
2022-09-05T14:44:24.441Z,29.00
2022-09-05T14:47:35.545Z,28.90
2022-09-05T14:50:27.583Z,29.00
2022-09-05T14:55:57.209Z,28.80
2022-09-05T15:02:42.723Z,28.80
2022-09-05T15:02:49.130Z,28.70
2022-09-05T15:07:06.836Z,28.90
2022-09-05T15:12:17.889Z,28.70
2022-09-05T15:12:38.612Z,28.80
2022-09-05T15:15:18.134Z,28.90
2022-09-05T15:17:48.981Z,28.90
2022-09-05T15:20:30.466Z,29.10
2022-09-05T15:23:11.238Z,29.00
2022-09-05T15:25:48.331Z,29.00
2022-09-05T15:28:21.068Z,28.90
2022-09-05T15:31:00.558Z,28.90
2022-09-05T15:33:30.273Z,29.00
2022-09-05T15:35:59.782Z,28.90
2022-09-05T15:38:37.118Z,28.90
2022-09-05T15:41:22.660Z,28.80
2022-09-05T15:44:00.031Z,28.90
2022-09-05T15:46:59.652Z,28.80
2022-09-05T15:49:35.199Z,28.80
2022-09-05T15:52:06.265Z,28.90
2022-09-05T15:54:39.456Z,28.60
2022-09-05T15:57:17.589Z,28.40
2022-09-05T15:59:49.664Z,28.60
2022-09-05T16:02:22.419Z,28.60
2022-09-05T16:10:28.408Z,28.70
2022-09-05T16:10:43.750Z,28.50
2022-09-05T16:11:04.465Z,28.60
2022-09-05T16:13:52.193Z,28.50
2022-09-05T16:22:24.584Z,28.50
2022-09-05T16:23:14.058Z,28.30
2022-09-05T16:23:24.618Z,28.10
2022-09-05T16:25:01.575Z,28.10
2022-09-05T16:27:52.708Z,27.80
2022-09-05T16:30:23.128Z,27.60
2022-09-05T16:32:55.906Z,27.50
2022-09-05T16:35:26.680Z,27.50
2022-09-05T16:37:59.566Z,27.40
2022-09-05T16:40:31.590Z,27.40
2022-09-05T16:43:08.283Z,27.40
2022-09-05T16:45:45.640Z,27.30
2022-09-05T16:48:29.842Z,27.10
2022-09-05T16:51:15.240Z,27.10
2022-09-05T16:53:58.084Z,26.90
2022-09-05T16:56:32.772Z,26.80
2022-09-05T16:59:03.893Z,26.70
2022-09-05T17:01:54.901Z,26.60
2022-09-05T17:05:03.113Z,26.70
2022-09-05T17:07:44.303Z,26.60
2022-09-05T17:10:18.539Z,26.60
2022-09-05T17:12:46.924Z,26.80
2022-09-05T17:15:19.978Z,26.70
2022-09-05T17:18:20.043Z,26.80
2022-09-05T17:20:50.453Z,26.70
2022-09-05T17:29:17.569Z,26.50
2022-09-05T17:29:34.131Z,26.50
2022-09-05T17:29:44.143Z,26.10
2022-09-05T17:32:04.450Z,25.80
2022-09-05T17:35:16.667Z,25.50
2022-09-05T17:38:32.145Z,25.50
2022-09-05T17:41:30.145Z,25.30
2022-09-05T17:44:05.675Z,25.10
2022-09-05T17:46:35.909Z,24.70
2022-09-05T17:49:19.528Z,24.70
2022-09-05T17:52:18.092Z,24.70
2022-09-05T17:54:50.255Z,24.50
2022-09-05T17:57:42.066Z,24.50
2022-09-05T18:00:43.704Z,24.20
2022-09-05T18:03:11.772Z,23.80
2022-09-05T18:06:04.330Z,23.90
2022-09-05T18:08:52.965Z,23.50
2022-09-05T18:11:37.753Z,23.60
2022-09-05T18:14:42.877Z,23.30
2022-09-05T18:18:02.020Z,23.30
2022-09-05T18:20:40.487Z,23.20
2022-09-05T18:23:43.693Z,23.20
2022-09-05T18:26:19.253Z,23.00
2022-09-05T18:28:59.238Z,23.00
2022-09-05T18:32:02.716Z,22.90
2022-09-05T18:35:08.642Z,23.10
2022-09-05T18:38:17.728Z,23.20
2022-09-05T18:41:09.151Z,22.90
2022-09-05T18:44:13.597Z,22.60
2022-09-05T18:46:51.037Z,22.50
2022-09-05T18:50:22.429Z,22.50
2022-09-05T18:52:23.974Z,22.50
2022-09-05T18:56:11.205Z,22.50
2022-09-05T18:57:51.291Z,22.90
2022-09-05T19:00:30.557Z,22.90
2022-09-05T19:03:17.586Z,22.60
2022-09-05T19:05:50.866Z,22.60
2022-09-05T19:08:29.010Z,22.60
2022-09-05T19:11:27.475Z,22.60
2022-09-05T19:14:25.220Z,22.40
2022-09-05T19:16:47.954Z,21.90
2022-09-05T19:19:18.672Z,21.70
2022-09-05T19:21:56.151Z,21.60
2022-09-05T19:24:45.154Z,21.40
2022-09-05T19:30:00.429Z,21.40
2022-09-05T19:36:53.309Z,21.30
2022-09-05T19:37:05.769Z,21.60
2022-09-05T19:37:13.758Z,21.40
2022-09-05T19:40:15.717Z,21.40
2022-09-05T19:47:25.996Z,21.30
2022-09-05T19:47:37.194Z,21.30
2022-09-05T19:47:44.714Z,21.30
2022-09-05T19:50:11.378Z,21.20
2022-09-05T19:52:40.915Z,21.30
2022-09-05T19:55:22.041Z,21.40
2022-09-05T19:58:14.876Z,21.30
2022-09-05T20:01:00.840Z,21.40
2022-09-05T20:03:39.357Z,21.40
2022-09-05T20:06:18.744Z,21.10
2022-09-05T20:09:14.734Z,21.00
2022-09-05T20:11:50.784Z,21.10
2022-09-05T20:15:09.067Z,21.10
2022-09-05T20:17:43.747Z,20.90
2022-09-05T20:20:17.042Z,21.20
2022-09-05T20:22:55.473Z,21.30
2022-09-05T20:25:35.229Z,21.10
2022-09-05T20:28:10.276Z,21.00
2022-09-05T20:30:44.702Z,20.80
2022-09-05T20:33:21.481Z,20.70
2022-09-05T20:37:17.100Z,20.70
2022-09-05T20:43:21.746Z,20.80
2022-09-05T20:43:28.427Z,20.80
2022-09-05T20:44:43.648Z,21.00
2022-09-05T20:52:59.907Z,21.00
2022-09-05T20:54:10.490Z,20.90
2022-09-05T20:57:40.657Z,20.90
2022-09-05T21:00:16.957Z,20.50
2022-09-05T21:02:56.300Z,20.40
2022-09-05T21:05:33.847Z,20.40
2022-09-05T21:08:33.854Z,20.40
2022-09-05T21:11:07.136Z,20.50
2022-09-05T21:13:41.218Z,20.80
2022-09-05T21:16:28.350Z,20.50
2022-09-05T21:18:57.447Z,20.30
2022-09-05T21:21:30.580Z,20.10
2022-09-05T21:24:16.117Z,20.00
2022-09-05T21:26:52.102Z,20.00
2022-09-05T21:29:33.340Z,20.10
2022-09-05T21:32:10.458Z,20.20
2022-09-05T21:34:45.601Z,20.30
2022-09-05T21:37:17.238Z,20.20
2022-09-05T21:39:59.554Z,20.10
2022-09-05T21:44:28.128Z,19.90
2022-09-05T21:47:40.907Z,19.90
2022-09-05T21:48:09.028Z,20.00
2022-09-05T21:50:43.479Z,19.90
2022-09-05T21:55:10.758Z,19.80
2022-09-05T21:59:17.320Z,19.70
2022-09-05T21:59:26.888Z,19.60
2022-09-05T22:01:56.185Z,19.70
2022-09-05T22:04:24.908Z,19.90
2022-09-05T22:06:54.444Z,20.00
2022-09-05T22:09:25.085Z,19.60
2022-09-05T22:11:54.158Z,19.70
2022-09-05T22:14:25.802Z,19.70
2022-09-05T22:16:57.669Z,19.50
2022-09-05T22:19:37.067Z,19.40
2022-09-05T22:22:16.638Z,19.30
2022-09-05T22:24:52.236Z,19.40
2022-09-05T22:27:22.799Z,19.20
2022-09-05T22:29:53.068Z,19.10
2022-09-05T22:32:33.873Z,19.00
2022-09-05T22:35:27.121Z,19.10
2022-09-05T22:37:59.624Z,19.20
2022-09-05T22:40:31.811Z,19.30
2022-09-05T22:43:02.108Z,19.50
2022-09-05T22:45:32.844Z,19.40
2022-09-05T22:48:09.506Z,19.40
2022-09-05T22:50:39.736Z,19.40
2022-09-05T22:53:09.933Z,19.20
2022-09-05T22:55:42.400Z,19.10
2022-09-05T22:58:13.460Z,19.10
2022-09-05T23:00:44.675Z,19.10
2022-09-05T23:03:14.296Z,19.00
2022-09-05T23:05:43.223Z,18.90
2022-09-05T23:08:12.329Z,19.00
2022-09-05T23:10:42.757Z,19.10
2022-09-05T23:13:12.354Z,19.00
2022-09-05T23:15:40.978Z,19.00
2022-09-05T23:18:10.234Z,19.00
2022-09-05T23:20:38.643Z,19.00
2022-09-05T23:23:09.611Z,19.00
2022-09-05T23:25:40.017Z,19.00
2022-09-05T23:28:11.429Z,19.10
2022-09-05T23:30:41.216Z,19.10
2022-09-05T23:33:11.343Z,19.20
2022-09-05T23:35:40.920Z,19.30
2022-09-05T23:38:11.917Z,19.30
2022-09-05T23:40:41.872Z,19.30
2022-09-05T23:43:13.103Z,19.20
2022-09-05T23:45:42.228Z,19.30
2022-09-05T23:48:11.936Z,19.20
2022-09-05T23:50:41.185Z,19.20
2022-09-05T23:53:10.901Z,19.30
2022-09-05T23:55:41.771Z,19.30
2022-09-05T23:58:12.279Z,19.20
